Time;durP1;ratioP1;P1;durP2;ratioP2;P2;SDS_P1;SDS_P2;PMS_P1;PMS_P2;Temp;Humidity;BMP_temperature;BMP_pressure;BME280_temperature;BME280_humidity;BME280_pressure;Samples;Min_cycle;Max_cycle;Signal;HPM_P1;HPM_P2
2023/10/15 00:05:39;;;;;;;7.30;1.93;;;13.00;65.60;;;;;;21079998;28;20236;-71
2023/10/15 00:15:42;;;;;;;6.27;1.97;;;13.00;65.70;;;;;;21079867;28;20341;-64
2023/10/15 00:25:47;;;;;;;7.77;1.87;;;12.90;66.10;;;;;;21079368;28;20776;-71
2023/10/15 00:35:55;;;;;;;5.20;1.80;;;12.80;66.30;;;;;;21079641;28;20237;-63
2023/10/15 00:45:59;;;;;;;3.17;1.43;;;12.90;66.30;;;;;;21078408;28;20569;-70
2023/10/15 00:56:04;;;;;;;6.90;2.00;;;12.90;66.30;;;;;;21091141;28;20240;-64
2023/10/15 01:06:06;;;;;;;6.97;1.80;;;12.80;66.40;;;;;;21094602;28;20225;-63
2023/10/15 01:16:09;;;;;;;4.33;1.67;;;12.70;66.70;;;;;;21093070;28;20240;-63
2023/10/15 01:26:23;;;;;;;4.37;1.60;;;12.50;67.20;;;;;;21092581;28;20215;-63
2023/10/15 01:36:28;;;;;;;7.20;1.57;;;12.30;67.60;;;;;;21092082;28;20663;-64
2023/10/15 01:46:48;;;;;;;3.93;1.60;;;12.30;67.80;;;;;;21092314;28;20209;-64
2023/10/15 01:56:55;;;;;;;4.37;1.63;;;12.20;68.30;;;;;;21090039;28;20311;-64
2023/10/15 02:06:58;;;;;;;5.50;1.50;;;12.20;68.40;;;;;;21088443;28;20633;-63
2023/10/15 02:17:00;;;;;;;3.93;2.00;;;12.10;68.50;;;;;;21088498;28;20236;-66
2023/10/15 02:27:06;;;;;;;6.70;2.33;;;11.90;68.90;;;;;;21087302;28;20260;-66
2023/10/15 02:37:14;;;;;;;5.87;2.27;;;11.70;70.00;;;;;;21086929;28;20735;-63
2023/10/15 02:57:40;;;;;;;6.30;2.07;;;11.50;70.80;;;;;;21084874;28;20721;-63
2023/10/15 03:07:42;;;;;;;7.57;2.00;;;11.50;71.30;;;;;;21084181;28;20650;-63
2023/10/15 03:17:44;;;;;;;3.73;1.60;;;11.40;71.80;;;;;;21083652;28;20245;-66
2023/10/15 03:27:46;;;;;;;9.87;2.03;;;11.50;72.20;;;;;;21082569;28;20657;-62
2023/10/15 03:37:58;;;;;;;3.57;2.10;;;11.40;72.50;;;;;;21081660;28;20229;-70
2023/10/15 03:48:00;;;;;;;7.63;2.13;;;11.30;72.70;;;;;;21081723;28;20624;-71
2023/10/15 03:58:02;;;;;;;6.27;1.97;;;11.20;73.20;;;;;;21080199;28;20723;-74
2023/10/15 04:08:10;;;;;;;3.37;1.67;;;11.10;73.90;;;;;;21080010;28;20204;-73
2023/10/15 04:18:12;;;;;;;3.47;1.63;;;10.90;74.00;;;;;;21079714;28;20595;-71
2023/10/15 04:28:14;;;;;;;4.27;2.20;;;10.90;74.20;;;;;;21078136;28;20257;-72
2023/10/15 04:38:21;;;;;;;5.67;1.63;;;10.80;74.70;;;;;;21078682;28;20329;-73
2023/10/15 04:48:32;;;;;;;7.90;3.30;;;10.90;75.10;;;;;;21078334;28;20765;-64
2023/10/15 04:58:34;;;;;;;3.40;2.10;;;11.00;75.50;;;;;;21077631;28;20711;-64
2023/10/15 05:08:37;;;;;;;6.47;2.40;;;11.00;76.10;;;;;;21077540;28;20216;-68
2023/10/15 05:18:39;;;;;;;6.70;2.30;;;11.00;76.60;;;;;;21077299;28;20323;-72
2023/10/15 05:28:41;;;;;;;4.30;2.40;;;11.00;76.60;;;;;;21076445;28;20205;-72
2023/10/15 05:38:42;;;;;;;4.00;1.83;;;11.00;77.00;;;;;;21083270;28;20233;-71
2023/10/15 05:48:44;;;;;;;4.83;1.77;;;11.00;77.20;;;;;;21090965;28;20296;-73
2023/10/15 05:58:46;;;;;;;6.93;2.03;;;11.00;77.30;;;;;;21089702;28;20249;-71
2023/10/15 06:08:49;;;;;;;5.00;1.77;;;11.00;77.50;;;;;;21088966;28;20218;-70
2023/10/15 06:18:50;;;;;;;6.73;3.27;;;11.00;77.20;;;;;;21070992;28;20590;-70
2023/10/15 06:28:52;;;;;;;4.40;2.23;;;11.00;77.80;;;;;;21087919;28;20212;-74
2023/10/15 06:38:56;;;;;;;3.57;2.13;;;11.10;78.00;;;;;;21086938;28;20237;-79
2023/10/15 06:48:59;;;;;;;4.87;2.07;;;11.00;78.70;;;;;;21086789;28;20616;-84
2023/10/15 06:59:01;;;;;;;7.37;2.10;;;11.10;78.50;;;;;;21000664;28;20242;-61
2023/10/15 07:09:03;;;;;;;9.93;3.00;;;11.10;78.40;;;;;;20952191;28;20214;-62
2023/10/15 07:19:04;;;;;;;5.17;2.17;;;11.40;78.00;;;;;;20978680;28;20592;-76
2023/10/15 07:29:07;;;;;;;5.00;1.90;;;11.60;78.20;;;;;;20915601;28;20219;-62
2023/10/15 07:39:10;;;;;;;5.17;1.90;;;11.60;78.80;;;;;;20960737;28;20231;-65
2023/10/15 07:49:16;;;;;;;4.57;1.83;;;11.90;78.50;;;;;;20997702;28;20744;-67
2023/10/15 07:59:17;;;;;;;4.10;1.67;;;12.20;78.50;;;;;;21070866;28;20576;-67
2023/10/15 08:09:19;;;;;;;6.63;1.83;;;12.30;77.30;;;;;;21066474;28;20224;-68
2023/10/15 08:19:21;;;;;;;4.97;1.70;;;12.40;77.30;;;;;;20995518;28;20323;-66
2023/10/15 08:29:23;;;;;;;9.37;2.20;;;12.50;77.10;;;;;;20994701;28;20213;-68
2023/10/15 08:39:27;;;;;;;7.53;1.90;;;12.70;76.00;;;;;;20993912;28;20685;-66
2023/10/15 08:49:37;;;;;;;7.63;1.63;;;12.60;75.30;;;;;;20994003;28;20624;-69
2023/10/15 08:59:40;;;;;;;5.37;1.70;;;12.80;75.10;;;;;;20993619;28;20248;-70
2023/10/15 09:09:42;;;;;;;8.17;2.17;;;12.90;73.40;;;;;;20994538;28;20293;-69
2023/10/15 09:19:49;;;;;;;6.47;2.00;;;13.00;73.10;;;;;;21008632;28;20662;-69
2023/10/15 09:30:18;;;;;;;5.47;1.73;;;12.70;73.20;;;;;;21006906;28;20210;-72
2023/10/15 09:40:20;;;;;;;7.43;1.77;;;12.70;72.40;;;;;;21007080;28;20226;-69
2023/10/15 09:50:25;;;;;;;8.03;3.70;;;13.10;71.20;;;;;;21005658;28;20231;-72
2023/10/15 10:00:46;;;;;;;4.57;2.00;;;13.60;65.30;;;;;;21005840;28;20286;-68
2023/10/15 10:11:10;;;;;;;7.57;3.23;;;13.60;65.90;;;;;;21004703;28;20767;-68
2023/10/15 10:21:16;;;;;;;4.90;1.60;;;13.60;64.10;;;;;;21003235;28;20573;-67
2023/10/15 10:31:18;;;;;;;2.57;1.20;;;13.30;66.90;;;;;;21003905;28;20317;-68
2023/10/15 10:41:20;;;;;;;6.10;1.90;;;13.30;66.30;;;;;;21002404;28;20681;-78
2023/10/15 10:51:30;;;;;;;3.83;1.50;;;12.80;66.80;;;;;;21001645;28;20638;-69
2023/10/15 11:01:39;;;;;;;2.63;1.13;;;12.90;65.80;;;;;;21002183;28;20298;-67
2023/10/15 11:11:44;;;;;;;6.90;1.43;;;13.10;64.90;;;;;;20999783;28;20712;-67
2023/10/15 11:21:47;;;;;;;3.10;1.50;;;13.40;62.90;;;;;;20999316;28;20614;-67
2023/10/15 11:31:56;;;;;;;2.43;0.97;;;13.10;64.70;;;;;;20986577;28;20231;-68
2023/10/15 11:41:58;;;;;;;1.50;1.10;;;12.20;66.00;;;;;;20925670;28;20228;-68
2023/10/15 11:52:05;;;;;;;3.20;1.20;;;11.70;68.70;;;;;;20895490;28;20244;-67
2023/10/15 12:02:10;;;;;;;4.30;1.67;;;11.90;70.00;;;;;;20830383;28;20205;-68
2023/10/15 12:12:13;;;;;;;3.40;1.40;;;11.90;70.70;;;;;;20830119;28;20714;-69
2023/10/15 12:22:15;;;;;;;5.10;1.73;;;12.10;72.00;;;;;;20830649;28;20209;-69
2023/10/15 12:32:20;;;;;;;6.13;1.60;;;;;;;;;;20829705;28;20232;-64
2023/10/15 12:42:37;;;;;;;2.70;1.50;;;;;;;;;;20828696;28;20275;-69
2023/10/15 12:52:39;;;;;;;3.43;1.50;;;;;;;;;;20867331;28;20667;-65
2023/10/15 13:02:43;;;;;;;3.53;1.80;;;;;;;;;;20927456;28;20238;-68
2023/10/15 13:12:49;;;;;;;2.83;1.57;;;14.50;64.70;;;;;;20926548;28;20240;-66
2023/10/15 13:22:51;;;;;;;1.20;1.07;;;14.70;63.20;;;;;;20926059;28;20211;-70
2023/10/15 13:32:53;;;;;;;2.53;1.10;;;14.70;63.40;;;;;;20925542;28;20240;-68
2023/10/15 13:42:55;;;;;;;2.20;1.23;;;14.60;59.40;;;;;;20924101;28;20254;-68
2023/10/15 13:52:56;;;;;;;3.60;1.20;;;14.80;58.10;;;;;;20923697;28;20241;-70
2023/10/15 14:02:58;;;;;;;2.27;1.20;;;14.70;56.80;;;;;;20923326;28;20215;-82
2023/10/15 14:13:01;;;;;;;2.40;1.10;;;14.60;55.10;;;;;;20922325;28;20713;-71
2023/10/15 14:23:20;;;;;;;2.00;1.20;;;14.70;55.70;;;;;;20906364;28;20295;-68
2023/10/15 14:33:22;;;;;;;3.53;1.27;;;14.70;56.60;;;;;;20921424;28;20236;-72
2023/10/15 14:43:24;;;;;;;1.57;1.00;;;15.00;56.00;;;;;;20919784;28;20580;-70
2023/10/15 14:53:28;;;;;;;1.37;1.00;;;14.70;56.00;;;;;;20918961;28;20239;-68
2023/10/15 15:03:32;;;;;;;1.50;1.00;;;14.70;55.00;;;;;;20918706;28;20208;-73
2023/10/15 15:13:34;;;;;;;1.10;1.00;;;14.50;55.20;;;;;;20917618;28;20235;-73
2023/10/15 15:23:35;;;;;;;2.27;1.20;;;14.20;55.60;;;;;;20916578;28;20287;-72
2023/10/15 15:33:37;;;;;;;3.70;2.27;;;13.90;56.40;;;;;;20915706;28;20322;-71
2023/10/15 15:43:39;;;;;;;2.03;1.40;;;13.60;57.70;;;;;;20916180;28;20213;-81
2023/10/15 15:53:41;;;;;;;3.33;1.20;;;13.20;59.00;;;;;;20914529;28;20332;-73
2023/10/15 16:03:42;;;;;;;4.30;2.30;;;12.50;61.90;;;;;;20912722;28;20299;-73
2023/10/15 16:13:53;;;;;;;2.17;1.23;;;12.60;62.80;;;;;;20913460;28;20599;-77
2023/10/15 16:23:55;;;;;;;3.03;1.50;;;;;;;;;;20911948;28;20206;-65
2023/10/15 16:33:57;;;;;;;1.53;1.20;;;;;;;;;;20912903;28;20243;-68
2023/10/15 16:43:59;;;;;;;2.73;1.37;;;12.50;64.10;;;;;;20923002;28;20209;-69
2023/10/15 16:54:02;;;;;;;2.50;1.40;;;12.50;64.10;;;;;;20991284;28;20243;-70
2023/10/15 17:04:04;;;;;;;2.10;1.20;;;12.50;64.80;;;;;;20993786;28;20292;-74
2023/10/15 17:14:06;;;;;;;2.10;1.40;;;12.20;65.00;;;;;;20994333;28;20687;-72
2023/10/15 17:24:09;;;;;;;4.43;3.20;;;12.00;66.10;;;;;;20993566;28;20203;-73
2023/10/15 17:34:10;;;;;;;3.40;1.70;;;12.00;66.20;;;;;;20997303;28;20708;-73
2023/10/15 17:44:15;;;;;;;4.07;1.63;;;12.00;66.80;;;;;;20962969;28;20203;-69
2023/10/15 17:54:22;;;;;;;2.93;2.20;;;11.70;67.60;;;;;;20977342;28;20324;-74
2023/10/15 18:04:27;;;;;;;3.57;2.27;;;11.50;68.50;;;;;;20922993;28;20212;-72
2023/10/15 18:14:29;;;;;;;4.50;2.37;;;11.30;68.90;;;;;;20978306;28;20234;-71
2023/10/15 18:24:31;;;;;;;2.80;2.20;;;11.30;69.40;;;;;;20971227;28;20246;-70
2023/10/15 18:34:33;;;;;;;4.23;2.03;;;11.20;70.50;;;;;;20918462;28;20699;-68
2023/10/15 18:44:35;;;;;;;3.43;2.30;;;11.10;70.10;;;;;;20917312;28;20215;-70
2023/10/15 18:54:37;;;;;;;7.70;4.20;;;11.00;69.80;;;;;;20916865;28;20235;-69
2023/10/15 19:04:38;;;;;;;4.63;2.73;;;11.00;70.70;;;;;;20916600;28;20272;-70
2023/10/15 19:14:41;;;;;;;5.90;2.90;;;10.90;70.90;;;;;;20915379;28;20233;-71
2023/10/15 19:24:43;;;;;;;4.00;2.50;;;10.80;71.30;;;;;;20914987;28;20207;-70
2023/10/15 19:34:45;;;;;;;6.30;3.00;;;10.60;71.70;;;;;;20914062;28;20329;-69
2023/10/15 19:44:47;;;;;;;7.60;3.50;;;10.40;72.20;;;;;;20913745;28;20564;-71
2023/10/15 19:54:49;;;;;;;6.30;3.90;;;10.30;72.90;;;;;;20933698;28;20250;-72
2023/10/15 20:04:50;;;;;;;4.67;3.20;;;10.10;73.60;;;;;;20971422;28;20222;-72
2023/10/15 20:14:52;;;;;;;6.47;3.80;;;10.00;74.00;;;;;;20911167;28;20239;-72
2023/10/15 20:24:54;;;;;;;4.83;3.30;;;9.90;75.80;;;;;;20911009;28;20274;-70
2023/10/15 20:34:56;;;;;;;6.07;3.43;;;9.90;76.40;;;;;;20910020;28;20330;-71
2023/10/15 20:44:57;;;;;;;4.63;3.40;;;10.00;75.20;;;;;;20910075;28;20298;-70
2023/10/15 20:55:01;;;;;;;5.77;4.07;;;9.80;77.00;;;;;;20909177;28;20281;-69
2023/10/15 21:05:03;;;;;;;5.50;4.33;;;9.40;76.50;;;;;;20908049;28;20210;-69
2023/10/15 21:15:08;;;;;;;6.73;4.53;;;9.40;77.50;;;;;;20925059;28;20286;-68
2023/10/15 21:25:12;;;;;;;8.13;4.73;;;9.40;77.70;;;;;;20926055;28;20206;-68
2023/10/15 21:35:14;;;;;;;7.73;4.67;;;9.40;78.40;;;;;;20925594;28;20269;-66
2023/10/15 21:45:16;;;;;;;9.33;4.77;;;9.30;78.40;;;;;;20925260;28;20217;-67
2023/10/15 21:55:17;;;;;;;7.27;4.37;;;9.20;78.80;;;;;;20924352;28;20256;-66
2023/10/15 22:05:19;;;;;;;4.00;3.20;;;9.10;79.00;;;;;;20923329;28;20217;-66
2023/10/15 22:15:24;;;;;;;9.10;3.97;;;9.10;79.60;;;;;;20922546;28;20332;-65
2023/10/15 22:25:26;;;;;;;7.47;4.17;;;8.90;79.30;;;;;;20921123;28;20550;-66
2023/10/15 22:35:29;;;;;;;6.57;4.13;;;8.80;79.40;;;;;;20921219;28;20233;-69
2023/10/15 22:45:31;;;;;;;7.30;4.07;;;8.80;80.00;;;;;;20920227;28;20227;-72
2023/10/15 22:55:34;;;;;;;8.53;4.43;;;8.60;80.10;;;;;;20919814;28;20330;-71
2023/10/15 23:05:36;;;;;;;5.90;4.13;;;8.60;80.10;;;;;;20918627;28;20204;-71
2023/10/15 23:15:38;;;;;;;6.90;4.30;;;8.60;80.70;;;;;;20917781;28;20243;-71
2023/10/15 23:25:41;;;;;;;9.33;4.40;;;8.40;80.80;;;;;;20917270;28;20208;-72
2023/10/15 23:35:45;;;;;;;6.70;3.90;;;8.30;80.90;;;;;;20916794;28;20246;-72
2023/10/15 23:45:49;;;;;;;5.83;4.17;;;8.10;81.10;;;;;;20915662;28;20215;-72
2023/10/15 23:55:51;;;;;;;6.13;3.97;;;8.00;81.40;;;;;;20914418;28;20244;-71
